Accueil
METAR-TAF:

METAR-TAF

Aéroports :

Aéroport d'Auckland

Auckland, Nouvelle-Zélande

latitude: 37-01S, longitude: 174-48E, altitude: 7 m

Observation

Le bulletin a été fait il y a 39 minutes, à 22:30 UTC
Vent 2 kt de nord
Température 15°C
Humidité 88%
Pression 1011 hPa
Visibilité 10 km ou plus

METAR: NZAA 172230Z AUTO 01002KT 9999 FEW050/// 15/13 Q1011

Heure: 11:09 (23:09 UTC)

Prévision

Le bulletin a été fait il y a 2 heures et 3 minutes, à 21:06 UTC
Prévision valable du 17 à 21 UTC au 19 à 00 UTC
Vent 5 kt de sud-est
Visibilité: 2000 m
Nuages fragmentés à une hauteur de 200 ft
brume
A partir de 17 à 2200 UTC
Vent 5 kt de sud-est
Visibilité 10 km ou plus
Nuages épars à une hauteur de 4500 ft
A partir de 18 à 0000 UTC
Vent 10 kt de est/nord-est
Visibilité 10 km ou plus
Nuages épars à une hauteur de 4000 ft

TAF: NZAA 172106Z 1721/1900 14005KT 2000 BR BKN002 FM172200 14005KT 9999 SCT045 FM180000 06010KT 9999 SCT040

Observations et prévisions météorologiques de plus de 4000 aéroports (messages METAR et TAF).

Les stations disponibles sont représentées par des disques jaunes et rouges sur la carte.

Passer la souris dessus pour voir le nom de la station.

Cliquer dessus pour voir les observations et prévisions météorologiques.

Pour changer de carte: cliquez sur les boutons verts avec une croix noire pour zoomer, sur le bouton vert avec un tiret pour effectuer un zoom arrière, ou sur les flèches vertes pour les cartes adjacentes.


METAR-TAF: